createdAt,value
2018-09-22T00:00:07.953Z,12.63
2018-09-22T00:06:12.648Z,9.13
2018-09-22T00:12:16.582Z,9.93
2018-09-22T00:18:20.059Z,11.27
2018-09-22T00:24:23.600Z,9.87
2018-09-22T00:30:27.360Z,11.00
2018-09-22T00:36:31.060Z,8.53
2018-09-22T00:42:35.433Z,6.80
2018-09-22T00:48:39.183Z,6.90
2018-09-22T00:54:43.842Z,7.10
2018-09-22T01:00:48.127Z,6.63
2018-09-22T01:06:51.773Z,10.13
2018-09-22T01:12:56.074Z,9.83
2018-09-22T01:18:59.680Z,13.93
2018-09-22T01:25:03.279Z,13.03
2018-09-22T01:31:07.019Z,14.50
2018-09-22T01:37:10.607Z,16.53
2018-09-22T01:43:14.027Z,15.30
2018-09-22T01:49:17.489Z,13.90
2018-09-22T01:55:20.951Z,11.00
2018-09-22T02:01:25.238Z,9.90
2018-09-22T02:07:29.438Z,12.00
2018-09-22T02:13:33.011Z,11.67
2018-09-22T02:19:36.771Z,11.53
2018-09-22T02:25:41.345Z,17.30
2018-09-22T02:31:45.448Z,12.60
2018-09-22T02:37:49.154Z,14.00
2018-09-22T02:43:52.662Z,15.67
2018-09-22T02:49:56.931Z,12.33
2018-09-22T02:56:00.526Z,14.37
2018-09-22T03:02:04.655Z,12.27
2018-09-22T03:08:09.055Z,8.73
2018-09-22T03:14:12.853Z,11.73
2018-09-22T03:20:17.463Z,10.10
2018-09-22T03:26:21.371Z,10.70
2018-09-22T03:32:25.180Z,9.37
2018-09-22T03:38:29.310Z,9.70
2018-09-22T03:44:33.019Z,11.43
2018-09-22T03:50:37.166Z,15.27
2018-09-22T03:56:41.551Z,7.20
2018-09-22T04:02:45.422Z,12.20
2018-09-22T04:08:49.684Z,11.33
2018-09-22T04:14:54.165Z,13.83
2018-09-22T04:20:57.846Z,9.17
2018-09-22T04:27:01.270Z,10.97
2018-09-22T04:33:05.031Z,8.57
2018-09-22T04:39:09.569Z,11.60
2018-09-22T04:45:13.301Z,11.00
2018-09-22T04:51:17.737Z,10.67
2018-09-22T04:57:22.342Z,10.93
2018-09-22T05:03:26.140Z,10.40
2018-09-22T05:09:30.046Z,10.17
2018-09-22T05:15:34.104Z,11.37
2018-09-22T05:21:37.841Z,8.10
2018-09-22T05:27:41.490Z,11.30
2018-09-22T05:33:45.214Z,12.87
2018-09-22T05:39:50.142Z,14.23
2018-09-22T05:45:54.110Z,11.43
2018-09-22T05:51:58.626Z,10.97
2018-09-22T05:58:03.140Z,14.17
2018-09-22T06:04:07.438Z,11.17
2018-09-22T06:10:13.434Z,11.37
2018-09-22T06:16:17.142Z,9.47
2018-09-22T06:22:21.143Z,11.00
2018-09-22T06:28:25.849Z,12.20
2018-09-22T06:34:29.536Z,11.83
2018-09-22T06:40:33.371Z,14.73
2018-09-22T06:46:37.105Z,13.67
2018-09-22T06:52:40.696Z,10.17
2018-09-22T06:58:44.717Z,9.77
2018-09-22T07:04:48.306Z,7.60
2018-09-22T07:10:52.311Z,12.50
2018-09-22T07:16:55.898Z,12.47
2018-09-22T07:23:05.914Z,11.33
2018-09-22T07:29:09.737Z,11.07
2018-09-22T07:35:13.457Z,8.37
2018-09-22T07:41:17.682Z,11.87
2018-09-22T07:47:21.550Z,14.10
2018-09-22T07:53:25.479Z,11.53
2018-09-22T07:59:30.073Z,9.87
2018-09-22T08:05:33.974Z,12.40
2018-09-22T08:11:39.209Z,8.63
2018-09-22T08:17:42.777Z,10.80
2018-09-22T08:23:46.247Z,13.17
2018-09-22T08:29:50.554Z,13.67
2018-09-22T08:35:54.301Z,11.93
2018-09-22T08:41:57.734Z,7.87
2018-09-22T08:48:01.201Z,11.07
2018-09-22T08:54:04.697Z,10.63
2018-09-22T09:00:08.446Z,7.93
2018-09-22T09:06:12.021Z,5.83
2018-09-22T09:12:15.513Z,9.77
2018-09-22T09:18:19.109Z,6.53
2018-09-22T09:24:22.586Z,6.03
2018-09-22T09:30:26.089Z,10.27
2018-09-22T09:36:29.650Z,8.03
2018-09-22T09:42:33.433Z,8.07
2018-09-22T09:48:37.005Z,6.27
2018-09-22T09:54:41.423Z,4.93
2018-09-22T10:00:45.969Z,7.80
2018-09-22T10:06:49.491Z,6.70
2018-09-22T10:12:53.086Z,4.00
2018-09-22T10:18:56.755Z,5.40
2018-09-22T10:25:00.248Z,5.43
2018-09-22T10:31:03.999Z,6.57
2018-09-22T10:37:07.445Z,4.00
2018-09-22T10:43:11.014Z,5.73
2018-09-22T10:49:14.441Z,19.63
2018-09-22T10:55:17.758Z,18.40
2018-09-22T11:01:23.109Z,5.50
2018-09-22T11:07:26.751Z,4.90
2018-09-22T11:13:30.226Z,7.43
2018-09-22T11:19:33.896Z,10.07
2018-09-22T11:25:37.930Z,6.70
2018-09-22T11:31:41.545Z,6.83
2018-09-22T11:37:44.972Z,5.83
2018-09-22T11:43:55.006Z,8.70
2018-09-22T11:49:58.438Z,4.23
2018-09-22T11:56:01.976Z,10.20
2018-09-22T12:02:05.498Z,6.23
2018-09-22T12:08:09.698Z,6.17
2018-09-22T12:14:13.464Z,8.43
2018-09-22T12:20:17.067Z,13.33
2018-09-22T12:26:21.308Z,5.77
2018-09-22T12:32:25.478Z,6.73
2018-09-22T12:38:29.656Z,5.97
2018-09-22T12:44:33.240Z,6.23
2018-09-22T12:50:36.906Z,4.60
2018-09-22T12:56:40.414Z,5.97
2018-09-22T13:02:43.954Z,3.93
2018-09-22T13:08:50.353Z,6.83
2018-09-22T13:14:53.754Z,5.67
2018-09-22T13:20:57.180Z,7.00
2018-09-22T13:27:00.654Z,4.83
2018-09-22T13:33:04.164Z,6.97
2018-09-22T13:39:11.286Z,8.93
2018-09-22T13:45:15.001Z,7.53
2018-09-22T13:51:18.749Z,3.70
2018-09-22T13:57:22.225Z,2.93
2018-09-22T14:03:25.631Z,3.80
2018-09-22T14:09:29.145Z,2.07
2018-09-22T14:15:33.245Z,3.90
2018-09-22T14:21:36.804Z,3.70
2018-09-22T14:27:40.606Z,2.07
2018-09-22T14:33:44.896Z,1.67
2018-09-22T14:39:48.349Z,3.27
2018-09-22T14:45:53.046Z,5.37
2018-09-22T14:51:56.466Z,3.47
2018-09-22T14:58:00.026Z,3.43
2018-09-22T15:04:03.490Z,3.30
2018-09-22T15:10:07.048Z,3.03
2018-09-22T15:16:10.822Z,1.70
2018-09-22T15:22:14.308Z,2.33
2018-09-22T15:28:17.741Z,2.90
2018-09-22T15:34:22.005Z,2.40
2018-09-22T15:40:25.607Z,5.60
2018-09-22T15:46:29.000Z,6.20
2018-09-22T15:52:32.820Z,4.43
2018-09-22T15:58:37.543Z,2.40
2018-09-22T16:04:41.779Z,3.50
2018-09-22T16:10:45.107Z,4.50
2018-09-22T16:16:48.739Z,3.70
2018-09-22T16:22:53.123Z,3.47
2018-09-22T16:28:57.613Z,2.43
2018-09-22T16:35:01.657Z,2.93
2018-09-22T16:41:05.217Z,3.23
2018-09-22T16:47:08.877Z,5.13
2018-09-22T16:53:13.249Z,4.00
2018-09-22T16:59:17.710Z,3.77
2018-09-22T17:05:21.613Z,2.27
2018-09-22T17:11:25.262Z,2.43
2018-09-22T17:17:30.209Z,2.73
2018-09-22T17:23:33.941Z,1.17
2018-09-22T17:29:37.757Z,2.60
2018-09-22T17:35:42.292Z,1.57
2018-09-22T17:41:46.536Z,3.97
2018-09-22T17:47:50.732Z,5.43
2018-09-22T17:53:55.365Z,3.40
2018-09-22T17:59:59.635Z,3.27
2018-09-22T18:06:03.472Z,5.07
2018-09-22T18:12:07.769Z,4.00
2018-09-22T18:18:12.088Z,6.17
2018-09-22T18:24:16.903Z,5.63
2018-09-22T18:30:20.941Z,4.60
2018-09-22T18:36:25.786Z,6.40
2018-09-22T18:42:31.316Z,5.47
2018-09-22T18:48:36.172Z,6.13
2018-09-22T18:54:40.485Z,8.07
2018-09-22T19:00:44.346Z,14.80
2018-09-22T19:06:48.392Z,10.40
2018-09-22T19:12:57.003Z,6.90
2018-09-22T19:19:04.941Z,5.87
2018-09-22T19:25:13.451Z,7.53
2018-09-22T19:31:22.425Z,10.53
2018-09-22T19:37:32.369Z,8.13
2018-09-22T19:44:47.720Z,6.70
2018-09-22T19:51:04.049Z,6.53
2018-09-22T19:57:08.205Z,7.20
2018-09-22T20:03:13.032Z,6.57
2018-09-22T20:09:17.239Z,6.27
2018-09-22T20:15:22.151Z,4.80
2018-09-22T20:21:27.134Z,4.87
2018-09-22T20:27:31.140Z,8.17
2018-09-22T20:33:35.642Z,5.07
2018-09-22T20:39:40.261Z,6.93
2018-09-22T20:45:45.393Z,7.07
2018-09-22T20:51:53.508Z,5.30
2018-09-22T20:57:57.476Z,6.83
2018-09-22T21:04:02.603Z,6.40
2018-09-22T21:10:06.680Z,6.27
2018-09-22T21:16:10.361Z,5.20
2018-09-22T21:22:14.381Z,8.73
2018-09-22T21:28:18.965Z,4.47
2018-09-22T21:34:23.378Z,4.40
2018-09-22T21:40:27.454Z,6.33
2018-09-22T21:46:31.889Z,6.10
2018-09-22T21:52:35.967Z,5.10
2018-09-22T21:58:40.130Z,4.13
2018-09-22T22:04:44.310Z,4.70
2018-09-22T22:10:48.795Z,6.63
2018-09-22T22:16:53.258Z,5.23
2018-09-22T22:22:57.793Z,6.57
2018-09-22T22:29:03.032Z,6.87
2018-09-22T22:35:07.453Z,8.20
2018-09-22T22:41:12.499Z,9.33
2018-09-22T22:47:16.182Z,6.93
2018-09-22T22:53:20.622Z,6.77
2018-09-22T22:59:24.138Z,6.70
2018-09-22T23:05:27.806Z,7.27
2018-09-22T23:11:32.346Z,7.90
2018-09-22T23:17:37.965Z,6.57
2018-09-22T23:23:43.261Z,8.20
2018-09-22T23:29:47.086Z,8.93
2018-09-22T23:35:51.856Z,12.10
2018-09-22T23:41:57.379Z,14.03
2018-09-22T23:48:01.475Z,13.90
2018-09-22T23:54:06.597Z,16.37
